Time;durP1;ratioP1;P1;durP2;ratioP2;P2;SDS_P1;SDS_P2;PMS_P1;PMS_P2;Temp;Humidity;BMP_temperature;BMP_pressure;BME280_temperature;BME280_humidity;BME280_pressure;Samples;Min_cycle;Max_cycle;Signal;HPM_P1;HPM_P2
2023/09/03 06:56:15;;;;;;;23.67;21.48;;;;;;;14.61;100.00;102586.22;5069719;28;20377;-68
2023/09/03 06:58:40;;;;;;;21.50;19.33;;;;;;;14.62;100.00;102590.63;5070089;28;20033;-69
2023/09/03 07:01:07;;;;;;;22.92;20.65;;;;;;;14.56;100.00;102585.97;5066545;28;20029;-69
2023/09/03 07:03:32;;;;;;;21.80;19.58;;;;;;;14.64;100.00;102584.97;5068522;28;20035;-70
2023/09/03 07:05:58;;;;;;;22.40;19.13;;;;;;;14.61;100.00;102586.22;5069563;28;20391;-69
2023/09/03 07:08:24;;;;;;;21.38;19.38;;;;;;;14.70;100.00;102584.97;5069511;28;20068;-70
2023/09/03 07:10:49;;;;;;;20.30;18.20;;;;;;;14.76;100.00;102590.63;5069746;28;20056;-70
2023/09/03 07:13:15;;;;;;;21.17;18.83;;;;;;;14.80;100.00;102594.63;5069635;28;20029;-71
2023/09/03 07:15:40;;;;;;;20.02;18.05;;;;;;;14.91;100.00;102595.84;5069356;28;20025;-70
2023/09/03 07:18:05;;;;;;;21.38;19.35;;;;;;;14.94;100.00;102596.25;5068904;28;20025;-69
2023/09/03 07:20:31;;;;;;;23.50;19.80;;;;;;;14.98;100.00;102600.25;5068708;28;20029;-70
2023/09/03 07:22:56;;;;;;;20.35;18.25;;;;;;;15.11;100.00;102596.66;5089626;28;20364;-69
2023/09/03 07:25:22;;;;;;;21.48;19.17;;;;;;;15.12;100.00;102603.78;5088139;28;20079;-69
2023/09/03 07:27:50;;;;;;;22.42;20.05;;;;;;;15.13;100.00;102605.47;5089583;28;20030;-70
2023/09/03 07:30:16;;;;;;;21.63;19.52;;;;;;;15.14;100.00;102598.97;5075185;28;20033;-71
2023/09/03 07:32:41;;;;;;;22.23;19.85;;;;;;;15.21;100.00;102597.03;5068802;28;20029;-71
2023/09/03 07:35:07;;;;;;;23.08;20.63;;;;;;;15.28;100.00;102609.81;5065417;28;20033;-69
2023/09/03 07:37:32;;;;;;;22.42;20.13;;;;;;;15.33;100.00;102613.59;5065720;28;20115;-74
2023/09/03 07:39:58;;;;;;;22.65;19.73;;;;;;;15.42;100.00;102609.59;5049002;28;20025;-71
2023/09/03 07:42:23;;;;;;;22.75;20.40;;;;;;;15.46;100.00;102612.75;5048691;28;20037;-71
2023/09/03 07:44:49;;;;;;;23.25;21.08;;;;;;;15.50;100.00;102619.41;5049114;28;20044;-72
2023/09/03 07:47:15;;;;;;;22.95;20.75;;;;;;;15.56;100.00;102628.63;5047895;28;20033;-70
2023/09/03 07:49:41;;;;;;;24.60;21.05;;;;;;;15.63;100.00;102628.63;5046583;28;20499;-72
2023/09/03 07:52:07;;;;;;;23.67;21.23;;;;;;;15.70;100.00;102633.00;5062897;28;20104;-72
2023/09/03 07:54:32;;;;;;;22.63;20.42;;;;;;;15.74;100.00;102627.94;5066697;28;20140;-70
2023/09/03 07:56:58;;;;;;;23.42;21.13;;;;;;;15.81;100.00;102622.50;5066914;28;20383;-70
2023/09/03 07:59:24;;;;;;;23.23;21.00;;;;;;;15.87;100.00;102619.75;5062825;28;20021;-71
2023/09/03 08:01:49;;;;;;;23.40;21.10;;;;;;;15.96;100.00;102623.06;5044868;28;20029;-72
2023/09/03 08:04:14;;;;;;;21.92;19.80;;;;;;;16.09;100.00;102619.41;5048772;28;20041;-73
2023/09/03 08:06:40;;;;;;;22.88;20.65;;;;;;;16.13;100.00;102626.13;5038044;28;20059;-71
2023/09/03 08:09:06;;;;;;;22.42;20.13;;;;;;;16.22;100.00;102618.50;5040914;28;20117;-71
2023/09/03 08:11:31;;;;;;;22.10;19.80;;;;;;;16.33;100.00;102625.97;5025549;28;20029;-71
2023/09/03 08:13:58;;;;;;;22.95;20.73;;;;;;;16.37;100.00;102621.75;5026305;28;20040;-71
2023/09/03 08:16:23;;;;;;;22.15;20.05;;;;;;;16.47;100.00;102622.13;5019467;28;20030;-71
2023/09/03 08:18:51;;;;;;;22.08;19.00;;;;;;;16.55;100.00;102626.47;5024943;28;20124;-71
2023/09/03 08:21:17;;;;;;;23.52;19.23;;;;;;;16.56;100.00;102619.09;5035055;28;20029;-72
2023/09/03 08:23:42;;;;;;;22.52;20.17;;;;;;;16.65;100.00;102613.16;5034841;28;20472;-71
2023/09/03 08:26:08;;;;;;;21.40;19.30;;;;;;;16.69;100.00;102618.16;5033538;28;20120;-72
2023/09/03 08:28:33;;;;;;;21.17;19.05;;;;;;;16.77;100.00;102610.53;5034833;28;20480;-72
2023/09/03 08:30:59;;;;;;;20.83;18.73;;;;;;;16.86;100.00;102611.06;5036129;28;20116;-71
2023/09/03 08:33:25;;;;;;;20.08;17.88;;;;;;;16.89;100.00;102613.38;5046396;28;20061;-72
2023/09/03 08:35:50;;;;;;;20.75;18.75;;;;;;;17.00;100.00;102620.84;5034654;28;20032;-71
2023/09/03 08:38:15;;;;;;;18.67;16.77;;;;;;;17.04;100.00;102618.50;5034824;28;20061;-70
2023/09/03 08:40:41;;;;;;;20.98;18.88;;;;;;;17.10;100.00;102623.06;5034278;28;20036;-72
2023/09/03 08:43:08;;;;;;;20.02;17.92;;;;;;;17.14;100.00;102624.28;5033308;28;20036;-75
2023/09/03 08:45:43;;;;;;;19.73;17.80;;;;;;;17.19;100.00;102629.09;5033538;28;20060;-75
2023/09/03 08:48:10;;;;;;;20.25;18.25;;;;;;;17.29;100.00;102626.66;5053450;28;20044;-73
2023/09/03 08:50:36;;;;;;;19.13;17.25;;;;;;;17.39;100.00;102623.38;5054013;28;20040;-72
2023/09/03 08:53:02;;;;;;;18.10;16.02;;;;;;;17.50;100.00;102625.38;5032514;28;20385;-71
2023/09/03 08:55:29;;;;;;;21.00;18.25;;;;;;;17.54;100.00;102629.34;5038269;28;20049;-70
2023/09/03 08:57:55;;;;;;;18.20;16.35;;;;;;;17.64;100.00;102634.28;5038830;28;20087;-73
2023/09/03 09:00:21;;;;;;;18.30;16.13;;;;;;;17.73;100.00;102632.06;5038654;28;20032;-70
2023/09/03 09:02:47;;;;;;;17.45;15.65;;;;;;;17.80;100.00;102630.09;5032645;28;20092;-69
2023/09/03 09:05:14;;;;;;;18.08;16.13;;;;;;;17.93;100.00;102640.06;5049508;28;20099;-70
2023/09/03 09:07:39;;;;;;;16.92;15.13;;;;;;;18.01;100.00;102637.00;5035850;28;20036;-75
2023/09/03 09:10:08;;;;;;;17.73;14.70;;;;;;;18.10;100.00;102640.28;5032659;28;20025;-71
2023/09/03 09:12:59;;;;;;;19.65;15.63;;;;;;;18.12;100.00;102634.56;5034263;28;20029;-76
2023/09/03 09:15:24;;;;;;;18.15;16.23;;;;;;;18.21;100.00;102633.16;5034181;28;20025;-71
2023/09/03 09:17:49;;;;;;;16.35;14.75;;;;;;;18.25;100.00;102637.06;5032937;28;20033;-75
2023/09/03 09:20:16;;;;;;;17.95;15.10;;;;;;;18.33;100.00;102636.75;5033193;28;20057;-71
2023/09/03 09:22:44;;;;;;;16.83;15.13;;;;;;;18.34;100.00;102632.97;5024054;28;20045;-71
2023/09/03 09:25:16;;;;;;;15.65;13.80;;;;;;;18.44;100.00;102631.56;5033731;28;20029;-71
2023/09/03 09:27:42;;;;;;;14.23;12.60;;;;;;;18.47;100.00;102633.81;5033684;28;20485;-70
2023/09/03 09:30:12;;;;;;;14.65;12.02;;;;;;;18.53;100.00;102644.69;5033782;28;20040;-71
2023/09/03 09:32:40;;;;;;;12.77;11.48;;;;;;;18.61;100.00;102629.78;5033570;28;20433;-72
2023/09/03 09:35:06;;;;;;;12.30;10.60;;;;;;;18.69;100.00;102636.81;5032388;28;20037;-73
2023/09/03 09:37:38;;;;;;;13.80;12.30;;;;;;;18.81;100.00;102640.44;5036854;28;20388;-70
2023/09/03 09:40:04;;;;;;;14.50;11.05;;;;;;;18.74;100.00;102634.22;5039493;28;20117;-71
2023/09/03 09:42:29;;;;;;;11.43;10.27;;;;;;;18.77;100.00;102633.75;5033409;28;20025;-70
2023/09/03 09:44:57;;;;;;;12.38;9.82;;;;;;;18.84;100.00;102629.00;5033832;28;20385;-74
2023/09/03 09:47:22;;;;;;;10.27;9.23;;;;;;;18.84;100.00;102628.16;5032191;28;20469;-70
2023/09/03 09:49:48;;;;;;;9.35;7.63;;;;;;;18.88;100.00;102630.19;5033230;28;20092;-72
2023/09/03 09:52:17;;;;;;;10.98;9.25;;;;;;;18.90;100.00;102622.59;5032178;28;20036;-71
2023/09/03 09:54:43;;;;;;;14.43;10.63;;;;;;;18.94;100.00;102622.94;5052877;28;20056;-70
2023/09/03 09:57:09;;;;;;;11.68;9.60;;;;;;;19.04;100.00;102616.88;5053354;28;20074;-70
2023/09/03 09:59:35;;;;;;;11.25;9.35;;;;;;;19.04;100.00;102611.38;5052750;28;20033;-72
2023/09/03 10:02:11;;;;;;;11.55;8.65;;;;;;;19.08;100.00;102610.66;5031559;28;20037;-70
2023/09/03 10:04:41;;;;;;;11.95;7.80;;;;;;;19.03;100.00;102613.28;5032259;28;20025;-71
2023/09/03 10:07:07;;;;;;;10.73;8.32;;;;;;;19.15;100.00;102610.53;5032529;28;20037;-72
2023/09/03 10:09:35;;;;;;;9.60;7.75;;;;;;;19.19;100.00;102619.97;5047599;28;20036;-72
2023/09/03 10:12:00;;;;;;;10.43;7.43;;;;;;;19.17;100.00;102619.34;5048986;28;20047;-72
2023/09/03 10:14:25;;;;;;;10.00;7.60;;;;;;;19.25;100.00;102619.00;5046525;28;20476;-73
2023/09/03 10:16:52;;;;;;;10.13;7.15;;;;;;;19.27;100.00;102616.00;5052708;28;20075;-71
2023/09/03 10:19:20;;;;;;;12.32;7.63;;;;;;;19.36;100.00;102605.50;5051385;28;20057;-69
2023/09/03 10:21:49;;;;;;;7.55;6.75;;;;;;;19.42;100.00;102618.25;5045085;28;20041;-68
2023/09/03 10:24:17;;;;;;;8.77;6.68;;;;;;;19.46;100.00;102619.41;5030915;28;20029;-71
2023/09/03 10:26:50;;;;;;;7.88;6.20;;;;;;;19.49;100.00;102624.47;5032280;28;20427;-71
2023/09/03 10:29:20;;;;;;;9.98;7.07;;;;;;;19.54;100.00;102616.31;5032402;28;20029;-71
2023/09/03 10:31:46;;;;;;;8.63;7.20;;;;;;;19.70;100.00;102616.63;5032557;28;20072;-70
2023/09/03 10:34:14;;;;;;;7.30;6.43;;;;;;;19.74;100.00;102620.56;5032689;28;20033;-69
2023/09/03 10:37:03;;;;;;;8.43;6.25;;;;;;;19.82;100.00;102628.44;5030307;28;20053;-71
2023/09/03 10:39:29;;;;;;;8.68;6.03;;;;;;;19.81;100.00;102618.53;5030859;28;20063;-69
2023/09/03 10:42:16;;;;;;;7.18;6.20;;;;;;;19.95;100.00;102610.84;5032464;28;20021;-71
2023/09/03 10:44:42;;;;;;;7.28;5.90;;;;;;;20.08;100.00;102609.69;5031253;28;20034;-71
2023/09/03 10:47:08;;;;;;;9.88;5.63;;;;;;;20.11;100.00;102617.44;5046772;28;20025;-69
2023/09/03 10:49:45;;;;;;;7.40;5.35;;;;;;;20.20;100.00;102618.72;5052365;28;20031;-70
2023/09/03 10:52:42;;;;;;;8.63;5.05;;;;;;;20.27;100.00;102622.13;5052672;28;20029;-71
2023/09/03 10:55:21;;;;;;;5.60;4.47;;;;;;;20.36;100.00;102623.41;5028971;28;20056;-70
2023/09/03 10:57:48;;;;;;;5.45;4.80;;;;;;;20.35;100.00;102620.91;5052262;28;20033;-74
2023/09/03 11:00:20;;;;;;;6.75;5.20;;;;;;;20.38;100.00;102625.91;5048641;28;20040;-73
2023/09/03 11:02:46;;;;;;;10.70;5.57;;;;;;;20.50;100.00;102623.09;5044067;28;20545;-71
2023/09/03 11:05:19;;;;;;;9.10;5.78;;;;;;;20.52;100.00;102626.44;5034264;28;20033;-73
2023/09/03 11:07:46;;;;;;;7.78;5.05;;;;;;;20.61;100.00;102624.94;5030938;28;20461;-69
2023/09/03 11:10:20;;;;;;;7.50;4.53;;;;;;;20.67;100.00;102626.72;5031055;28;20022;-72
2023/09/03 11:12:49;;;;;;;6.30;3.88;;;;;;;20.75;100.00;102630.97;5030847;28;20034;-74
2023/09/03 11:15:14;;;;;;;5.55;3.63;;;;;;;20.82;100.00;102628.03;5031846;28;20025;-70
2023/09/03 11:17:54;;;;;;;5.00;3.38;;;;;;;20.85;100.00;102631.13;5047535;28;20376;-69
2023/09/03 11:20:35;;;;;;;5.32;2.92;;;;;;;20.82;100.00;102628.88;5045572;28;20029;-71
2023/09/03 11:23:03;;;;;;;5.53;3.40;;;;;;;20.82;100.00;102625.28;5022509;28;20061;-72
2023/09/03 11:25:41;;;;;;;4.93;3.53;;;;;;;20.87;100.00;102630.88;5030458;28;20137;-72
2023/09/03 11:28:11;;;;;;;4.40;3.28;;;;;;;20.93;100.00;102627.13;5029805;28;20037;-72
2023/09/03 11:30:37;;;;;;;4.10;2.88;;;;;;;21.04;100.00;102633.59;5031321;28;20469;-73
2023/09/03 11:33:03;;;;;;;3.45;2.58;;;;;;;21.04;100.00;102626.19;5030232;28;20392;-71
2023/09/03 11:35:28;;;;;;;3.00;2.38;;;;;;;21.13;97.69;102620.25;5031735;28;20029;-69
2023/09/03 11:37:54;;;;;;;4.78;3.10;;;;;;;21.29;82.60;102629.53;5033629;28;20064;-68
2023/09/03 11:40:24;;;;;;;4.32;3.10;;;;;;;21.27;94.95;102629.78;5033015;28;20400;-71
2023/09/03 11:42:50;;;;;;;4.65;2.90;;;;;;;21.42;93.39;102627.28;5055273;28;20040;-74
2023/09/03 11:45:16;;;;;;;4.18;3.35;;;;;;;21.41;89.95;102624.78;5044697;28;20091;-71
2023/09/03 11:47:49;;;;;;;5.75;3.88;;;;;;;21.37;100.00;102624.44;5035786;28;20112;-76
2023/09/03 11:50:16;;;;;;;5.72;3.60;;;;;;;21.32;90.32;102634.56;5033254;28;20018;-71
2023/09/03 11:52:53;;;;;;;3.72;2.90;;;;;;;21.42;100.00;102631.94;5025698;28;20041;-75
2023/09/03 11:55:19;;;;;;;2.55;2.20;;;;;;;21.43;84.16;102628.91;5033296;28;20124;-72
2023/09/03 11:57:46;;;;;;;3.17;1.90;;;;;;;21.59;85.17;102634.69;5034474;28;20120;-70
2023/09/03 12:00:12;;;;;;;2.70;2.00;;;;;;;21.57;86.82;102636.84;5039643;28;20037;-68
2023/09/03 12:02:40;;;;;;;2.28;1.83;;;;;;;21.83;83.66;102637.16;5041273;28;20029;-69
2023/09/03 12:05:06;;;;;;;3.35;2.00;;;;;;;21.81;85.96;102631.91;5046105;28;20072;-69
2023/09/03 12:07:31;;;;;;;2.78;1.90;;;;;;;21.98;82.37;102631.81;5058641;28;20033;-71
2023/09/03 12:09:56;;;;;;;4.05;2.70;;;;;;;22.02;74.96;102632.97;5055013;28;20464;-72
2023/09/03 12:12:22;;;;;;;3.63;2.70;;;;;;;22.08;81.57;102631.09;5029075;28;20030;-71
2023/09/03 12:14:47;;;;;;;2.67;1.73;;;;;;;22.11;76.60;102628.63;5013985;28;20036;-70
2023/09/03 12:17:26;;;;;;;2.85;1.58;;;;;;;22.21;80.76;102632.59;5015518;28;20053;-71
2023/09/03 12:19:51;;;;;;;2.47;1.42;;;;;;;22.29;83.64;102637.66;5015272;28;20026;-69
2023/09/03 12:22:19;;;;;;;2.90;2.05;;;;;;;22.39;75.02;102637.78;5014348;28;20359;-70
2023/09/03 12:24:46;;;;;;;5.47;1.85;;;;;;;22.43;69.85;102640.84;5015149;28;20140;-72
2023/09/03 12:27:11;;;;;;;3.10;2.10;;;;;;;22.38;65.34;102632.53;5019831;28;20461;-73
2023/09/03 12:29:38;;;;;;;2.65;1.80;;;;;;;22.46;67.39;102626.53;5021309;28;20088;-73
2023/09/03 12:32:06;;;;;;;4.25;2.50;;;;;;;22.42;72.26;102628.13;5027838;28;20111;-71
2023/09/03 12:34:36;;;;;;;4.10;2.65;;;;;;;22.46;71.38;102629.28;5045977;28;20033;-73
2023/09/03 12:37:03;;;;;;;3.17;2.30;;;;;;;22.79;80.17;102630.09;5034026;28;20151;-72
2023/09/03 12:39:32;;;;;;;5.03;2.70;;;;;;;22.72;64.90;102626.72;5045557;28;20040;-73
2023/09/03 12:41:58;;;;;;;3.47;2.10;;;;;;;22.93;72.82;102624.94;5024373;28;20477;-75
2023/09/03 12:44:24;;;;;;;2.03;1.75;;;;;;;22.91;73.03;102633.50;5015004;28;20030;-70
2023/09/03 12:46:51;;;;;;;3.22;2.50;;;;;;;22.94;68.07;102624.69;5014749;28;20458;-74
2023/09/03 12:49:16;;;;;;;2.95;2.60;;;;;;;22.94;67.16;102632.97;5014911;28;20061;-72
2023/09/03 12:51:41;;;;;;;2.55;2.13;;;;;;;22.95;68.72;102625.53;5014577;28;20077;-72
2023/09/03 12:54:08;;;;;;;4.55;2.97;;;;;;;22.92;68.21;102626.06;5028660;28;20029;-73
2023/09/03 12:56:33;;;;;;;4.07;2.20;;;;;;;22.97;67.54;102635.19;5014898;28;20482;-72
2023/09/03 12:59:04;;;;;;;2.83;2.30;;;;;;;22.98;67.79;102633.28;5014479;28;20076;-70
2023/09/03 13:01:40;;;;;;;3.53;2.20;;;;;;;22.97;67.33;102632.44;5012412;28;20026;-71
2023/09/03 13:04:08;;;;;;;3.95;2.15;;;;;;;23.00;67.40;102639.34;5013236;28;20033;-71
2023/09/03 13:06:34;;;;;;;4.90;2.22;;;;;;;23.09;67.71;102628.66;5036240;28;20122;-72
2023/09/03 13:08:59;;;;;;;2.50;2.30;;;;;;;23.08;82.74;102625.03;5053960;28;20620;-70
2023/09/03 13:11:24;;;;;;;2.80;2.20;;;;;;;23.12;70.01;102634.50;5053953;28;20041;-72
2023/09/03 13:13:50;;;;;;;4.60;2.50;;;;;;;23.11;69.26;102630.06;5053671;28;20035;-74
2023/09/03 13:16:19;;;;;;;3.00;2.75;;;;;;;23.10;70.37;102631.19;5054174;28;20460;-70
2023/09/03 13:18:46;;;;;;;3.28;2.40;;;;;;;23.20;75.52;102626.81;5054009;28;20025;-75
2023/09/03 13:21:12;;;;;;;2.50;2.30;;;;;;;23.23;68.19;102629.03;5042492;28;20121;-71
2023/09/03 13:23:38;;;;;;;5.07;2.95;;;;;;;23.37;71.15;102630.22;5032413;28;20413;-70
2023/09/03 13:26:04;;;;;;;3.55;2.83;;;;;;;23.31;66.57;102625.75;5043118;28;20095;-69
2023/09/03 13:28:31;;;;;;;2.63;2.25;;;;;;;23.27;64.98;102628.22;5027345;28;20436;-69
2023/09/03 13:30:57;;;;;;;3.40;2.30;;;;;;;23.25;67.47;102629.59;5028828;28;20471;-71
2023/09/03 13:33:22;;;;;;;3.83;2.80;;;;;;;23.20;68.96;102622.09;5037016;28;20116;-73
2023/09/03 13:35:52;;;;;;;5.38;3.00;;;;;;;23.26;71.19;102625.72;5025610;28;20148;-70
2023/09/03 13:38:18;;;;;;;3.83;2.97;;;;;;;23.33;74.08;102624.38;5020407;28;20591;-70
2023/09/03 13:40:43;;;;;;;5.07;3.38;;;;;;;23.33;72.87;102624.38;5022749;28;20053;-70
2023/09/03 13:43:09;;;;;;;5.18;3.40;;;;;;;23.28;70.90;102624.38;5030783;28;20052;-73
2023/09/03 13:45:34;;;;;;;4.38;3.60;;;;;;;23.25;69.69;102624.06;5031784;28;20033;-70
2023/09/03 13:48:00;;;;;;;5.65;3.67;;;;;;;23.17;76.65;102619.88;5025406;28;20052;-74
2023/09/03 13:50:27;;;;;;;4.20;3.53;;;;;;;23.27;71.31;102616.38;5023674;28;20531;-69
2023/09/03 13:52:54;;;;;;;4.68;3.95;;;;;;;23.23;70.52;102613.28;5033203;28;20057;-70
2023/09/03 13:55:23;;;;;;;4.50;3.85;;;;;;;23.30;73.79;102611.13;5026814;28;20155;-74
2023/09/03 13:57:48;;;;;;;4.90;3.97;;;;;;;23.38;72.85;102604.25;5012685;28;20370;-73
2023/09/03 14:00:14;;;;;;;7.22;4.20;;;;;;;23.38;72.93;102608.94;5016927;28;20036;-74
2023/09/03 14:02:40;;;;;;;6.03;4.07;;;;;;;23.40;71.98;102601.22;5018115;28;20113;-75
2023/09/03 14:05:05;;;;;;;6.22;4.10;;;;;;;23.47;72.43;102613.66;5034083;28;20124;-75
2023/09/03 14:07:31;;;;;;;4.72;4.28;;;;;;;23.50;69.52;102602.09;5021513;28;20033;-75
2023/09/03 14:09:56;;;;;;;7.68;4.32;;;;;;;23.57;71.89;102612.03;5041531;28;20481;-74
